createdAt,value
2023-04-12T00:00:39.893Z,99370.88
2023-04-12T00:03:19.698Z,99361.23
2023-04-12T00:05:56.755Z,99361.15
2023-04-12T00:08:42.300Z,99352.49
2023-04-12T00:11:06.537Z,99351.79
2023-04-12T00:13:32.773Z,99348.02
2023-04-12T00:15:57.017Z,99346.17
2023-04-12T00:18:24.345Z,99346.22
2023-04-12T00:20:47.909Z,99356.95
2023-04-12T00:23:14.048Z,99359.02
2023-04-12T00:25:57.989Z,99365.20
2023-04-12T00:28:22.190Z,99363.88
2023-04-12T00:30:46.802Z,99364.60
2023-04-12T00:33:10.422Z,99366.90
2023-04-12T00:35:40.530Z,99362.14
2023-04-12T00:38:11.953Z,99361.21
2023-04-12T00:40:42.338Z,99357.44
2023-04-12T00:43:27.219Z,99352.80
2023-04-12T00:45:51.384Z,99348.99
2023-04-12T00:48:28.315Z,99343.52
2023-04-12T00:50:55.293Z,99336.61
2023-04-12T00:53:22.419Z,99334.24
2023-04-12T00:55:50.968Z,99334.66
2023-04-12T00:58:15.912Z,99329.41
2023-04-12T01:00:39.675Z,99327.38
2023-04-12T01:03:04.906Z,99327.07
2023-04-12T01:05:29.141Z,99324.15
2023-04-12T01:08:04.575Z,99326.06
2023-04-12T01:10:38.987Z,99329.57
2023-04-12T01:13:16.811Z,99331.97
2023-04-12T01:15:58.498Z,99336.02
2023-04-12T01:18:25.200Z,99336.48
2023-04-12T01:20:54.348Z,99335.80
2023-04-12T01:23:42.321Z,99336.08
2023-04-12T01:26:32.744Z,99342.77
2023-04-12T01:29:01.472Z,99346.02
2023-04-12T01:31:28.073Z,99341.84
2023-04-12T01:33:53.037Z,99348.14
2023-04-12T01:36:22.397Z,99352.38
2023-04-12T01:38:56.160Z,99359.59
2023-04-12T01:41:29.285Z,99360.75
2023-04-12T01:43:52.959Z,99358.69
2023-04-12T01:46:27.405Z,99354.07
2023-04-12T01:49:12.822Z,99352.57
2023-04-12T01:52:02.778Z,99346.33
2023-04-12T01:54:31.151Z,99345.95
2023-04-12T01:57:01.292Z,99348.34
2023-04-12T01:59:30.312Z,99348.11
2023-04-12T02:01:54.271Z,99340.64
2023-04-12T02:04:22.098Z,99344.67
2023-04-12T02:06:48.044Z,99342.06
2023-04-12T02:09:25.508Z,99339.16
2023-04-12T02:11:50.442Z,99337.40
2023-04-12T02:14:14.054Z,99339.29
2023-04-12T02:16:38.210Z,99338.42
2023-04-12T02:19:01.931Z,99336.38
2023-04-12T02:21:25.668Z,99328.11
2023-04-12T02:23:49.864Z,99323.77
2023-04-12T02:26:13.551Z,99323.41
2023-04-12T02:28:37.935Z,99324.83
2023-04-12T02:31:01.893Z,99321.08
2023-04-12T02:33:27.534Z,99322.21
2023-04-12T02:35:51.626Z,99325.15
2023-04-12T02:38:16.312Z,99323.42
2023-04-12T02:40:41.567Z,99327.02
2023-04-12T02:43:07.316Z,99328.16
2023-04-12T02:45:31.527Z,99334.15
2023-04-12T02:47:55.408Z,99336.85
2023-04-12T02:50:21.980Z,99340.29
2023-04-12T02:52:54.388Z,99343.01
2023-04-12T02:55:18.450Z,99345.74
2023-04-12T02:57:42.404Z,99346.80
2023-04-12T03:00:11.583Z,99347.27
2023-04-12T03:02:45.376Z,99345.34
2023-04-12T03:05:17.194Z,99340.83
2023-04-12T03:07:40.782Z,99341.33
2023-04-12T03:10:07.260Z,99341.68
2023-04-12T03:12:31.707Z,99342.23
2023-04-12T03:15:15.471Z,99341.41
2023-04-12T03:17:42.503Z,99342.96
2023-04-12T03:20:09.274Z,99344.36
2023-04-12T03:22:33.577Z,99349.21
2023-04-12T03:24:57.664Z,99350.27
2023-04-12T03:27:21.826Z,99355.29
2023-04-12T03:29:45.950Z,99354.77
2023-04-12T03:32:10.397Z,99356.48
2023-04-12T03:34:34.598Z,99354.20
2023-04-12T03:37:04.557Z,99350.90
2023-04-12T03:39:40.307Z,99347.45
2023-04-12T03:42:05.582Z,99345.20
2023-04-12T03:44:29.184Z,99346.58
2023-04-12T03:46:54.521Z,99351.77
2023-04-12T03:49:19.120Z,99350.41
2023-04-12T03:51:44.893Z,99351.06
2023-04-12T03:54:09.094Z,99352.08
2023-04-12T03:56:40.446Z,99352.89
2023-04-12T03:59:08.587Z,99355.29
2023-04-12T04:01:33.044Z,99351.29
2023-04-12T04:03:58.821Z,99353.52
2023-04-12T04:06:23.513Z,99356.25
2023-04-12T04:08:48.325Z,99355.19
2023-04-12T04:11:12.520Z,99357.59
2023-04-12T04:13:38.848Z,99353.73
2023-04-12T04:16:06.450Z,99349.44
2023-04-12T04:18:29.302Z,99349.23
2023-04-12T04:20:56.202Z,99347.89
2023-04-12T04:23:20.338Z,99353.08
2023-04-12T04:25:47.314Z,99354.72
2023-04-12T04:28:10.914Z,99355.17
2023-04-12T04:30:38.198Z,99355.86
2023-04-12T04:33:02.355Z,99361.69
2023-04-12T04:35:29.139Z,99365.66
2023-04-12T04:38:19.712Z,99369.79
2023-04-12T04:40:47.286Z,99369.58
2023-04-12T04:43:13.279Z,99373.11
2023-04-12T04:45:40.808Z,99373.61
2023-04-12T04:48:13.900Z,99381.20
2023-04-12T04:50:37.710Z,99382.67
2023-04-12T04:53:01.804Z,99385.34
2023-04-12T04:55:26.822Z,99389.77
2023-04-12T04:57:53.576Z,99390.20
2023-04-12T05:00:19.263Z,99391.11
2023-04-12T05:02:48.750Z,99386.00
2023-04-12T05:05:22.534Z,99391.98
2023-04-12T05:07:46.758Z,99388.75
2023-04-12T05:10:11.648Z,99389.77
2023-04-12T05:12:37.776Z,99394.40
2023-04-12T05:17:28.129Z,99398.27
2023-04-12T05:19:52.181Z,99399.80
2023-04-12T05:22:19.693Z,99401.85
2023-04-12T05:24:43.386Z,99404.92
2023-04-12T05:27:07.170Z,99403.95
2023-04-12T05:29:31.244Z,99398.64
2023-04-12T05:31:54.956Z,99400.58
2023-04-12T05:34:19.577Z,99395.29
2023-04-12T05:36:52.460Z,99393.06
2023-04-12T05:39:16.579Z,99391.97
2023-04-12T05:41:41.715Z,99390.14
2023-04-12T05:44:05.269Z,99386.95
2023-04-12T05:46:29.344Z,99381.81
2023-04-12T05:48:53.027Z,99384.06
2023-04-12T05:51:18.212Z,99382.66
2023-04-12T05:53:43.463Z,99387.55
2023-04-12T05:56:10.469Z,99388.16
2023-04-12T05:58:34.336Z,99392.00
2023-04-12T06:00:57.966Z,99391.55
2023-04-12T06:03:23.805Z,99392.75
2023-04-12T06:05:53.686Z,99389.94
2023-04-12T06:08:17.276Z,99390.81
2023-04-12T06:10:41.854Z,99394.64
2023-04-12T06:13:05.878Z,99391.23
2023-04-12T06:15:31.440Z,99389.11
2023-04-12T06:17:59.173Z,99390.34
2023-04-12T06:20:25.692Z,99389.21
2023-04-12T06:22:49.574Z,99382.77
2023-04-12T06:25:15.816Z,99388.14
2023-04-12T06:27:46.809Z,99388.98
2023-04-12T06:30:13.768Z,99388.67
2023-04-12T06:32:58.109Z,99388.71
2023-04-12T06:35:21.978Z,99388.81
2023-04-12T06:37:46.147Z,99389.23
2023-04-12T06:40:12.057Z,99391.84
2023-04-12T06:42:35.976Z,99391.25
2023-04-12T06:45:00.233Z,99395.60
2023-04-12T06:47:44.600Z,99395.86
2023-04-12T06:50:11.784Z,99396.38
2023-04-12T06:52:35.423Z,99397.26
2023-04-12T06:54:59.064Z,99402.58
2023-04-12T06:57:22.688Z,99403.79
2023-04-12T06:59:46.330Z,99407.10
2023-04-12T07:02:10.507Z,99404.76
2023-04-12T07:04:34.528Z,99400.98
2023-04-12T07:07:06.395Z,99400.70
2023-04-12T07:09:32.576Z,99400.33
2023-04-12T07:11:59.737Z,99404.50
2023-04-12T07:14:23.733Z,99405.90
2023-04-12T07:16:47.700Z,99414.09
2023-04-12T07:19:11.923Z,99416.30
2023-04-12T07:21:35.745Z,99417.90
2023-04-12T07:23:59.605Z,99423.13
2023-04-12T07:26:43.301Z,99422.61
2023-04-12T07:29:07.737Z,99422.00
2023-04-12T07:31:31.628Z,99418.84
2023-04-12T07:33:55.515Z,99413.44
2023-04-12T07:36:21.167Z,99407.77
2023-04-12T07:39:05.360Z,99402.23
2023-04-12T07:41:38.015Z,99403.11
2023-04-12T07:44:01.695Z,99402.47
2023-04-12T07:46:25.484Z,99401.41
2023-04-12T07:48:49.501Z,99404.16
2023-04-12T07:51:22.369Z,99407.17
2023-04-12T07:53:47.701Z,99411.23
2023-04-12T07:56:34.297Z,99409.84
2023-04-12T07:58:58.024Z,99410.52
2023-04-12T08:01:21.656Z,99410.45
2023-04-12T08:03:46.638Z,99415.20
2023-04-12T08:06:32.362Z,99420.16
2023-04-12T08:09:01.339Z,99420.62
2023-04-12T08:11:38.794Z,99421.86
2023-04-12T08:14:05.708Z,99419.70
2023-04-12T08:16:32.551Z,99418.63
2023-04-12T08:18:58.190Z,99419.49
2023-04-12T08:21:24.582Z,99423.14
2023-04-12T08:23:50.294Z,99427.25
2023-04-12T08:26:13.888Z,99430.64
2023-04-12T08:28:39.530Z,99429.61
2023-04-12T08:31:04.356Z,99426.16
2023-04-12T08:33:28.046Z,99428.16
2023-04-12T08:35:52.510Z,99433.44
2023-04-12T08:38:44.173Z,99444.20
2023-04-12T08:41:09.816Z,99448.80
2023-04-12T08:43:35.514Z,99448.48
2023-04-12T08:45:59.990Z,99452.08
2023-04-12T08:48:25.444Z,99447.79
2023-04-12T08:51:01.716Z,99444.04
2023-04-12T08:53:25.855Z,99438.87
2023-04-12T08:55:49.240Z,99433.24
2023-04-12T08:58:14.826Z,99423.52
2023-04-12T09:00:39.644Z,99411.70
2023-04-12T09:03:03.273Z,99401.45
2023-04-12T09:05:30.215Z,99390.91
2023-04-12T09:07:54.203Z,99382.35
2023-04-12T09:10:32.867Z,99384.03
2023-04-12T09:12:56.543Z,99386.41
2023-04-12T09:15:23.324Z,99387.05
2023-04-12T09:17:49.460Z,99393.66
2023-04-12T09:20:25.397Z,99396.94
2023-04-12T09:22:49.550Z,99399.09
2023-04-12T09:25:13.797Z,99396.95
2023-04-12T09:27:47.622Z,99392.67
2023-04-12T09:30:13.537Z,99389.98
2023-04-12T09:32:37.974Z,99393.77
2023-04-12T09:35:02.243Z,99391.48
2023-04-12T09:37:26.143Z,99389.84
2023-04-12T09:40:00.777Z,99384.42
2023-04-12T09:42:32.510Z,99383.04
2023-04-12T09:44:59.276Z,99386.79
2023-04-12T09:47:24.444Z,99385.44
2023-04-12T09:49:48.179Z,99382.05
2023-04-12T09:52:13.494Z,99378.91
2023-04-12T09:54:42.331Z,99377.81
2023-04-12T09:57:07.694Z,99370.89
2023-04-12T09:59:38.041Z,99371.77
2023-04-12T10:02:04.435Z,99376.02
2023-04-12T10:04:29.741Z,99370.09
2023-04-12T10:06:53.865Z,99376.27
2023-04-12T10:09:17.617Z,99376.97
2023-04-12T10:11:42.124Z,99379.04
2023-04-12T10:14:06.813Z,99379.13
2023-04-12T10:16:33.704Z,99381.31
2023-04-12T10:19:01.649Z,99385.88
2023-04-12T10:21:26.286Z,99388.16
2023-04-12T10:23:50.198Z,99387.90
2023-04-12T10:26:16.438Z,99390.73
2023-04-12T10:28:40.540Z,99390.66
2023-04-12T10:31:29.934Z,99388.42
2023-04-12T10:33:55.822Z,99388.52
2023-04-12T10:36:19.550Z,99392.20
2023-04-12T10:38:47.510Z,99393.27
2023-04-12T10:41:17.808Z,99392.64
2023-04-12T10:43:42.149Z,99395.51
2023-04-12T10:46:06.437Z,99393.33
2023-04-12T10:48:34.491Z,99389.11
2023-04-12T10:51:14.161Z,99392.75
2023-04-12T10:53:37.697Z,99387.92
2023-04-12T10:56:41.165Z,99382.98
2023-04-12T10:59:07.862Z,99379.50
2023-04-12T11:02:03.307Z,99373.02
2023-04-12T11:04:27.147Z,99372.77
2023-04-12T11:07:09.556Z,99363.68
2023-04-12T11:09:40.705Z,99362.64
2023-04-12T11:12:13.923Z,99357.91
2023-04-12T11:14:38.877Z,99353.98
2023-04-12T11:17:24.566Z,99348.17
2023-04-12T11:19:52.185Z,99349.98
2023-04-12T11:22:17.850Z,99347.68
2023-04-12T11:24:43.123Z,99347.70
2023-04-12T11:27:06.591Z,99344.29
2023-04-12T11:29:31.925Z,99344.18
2023-04-12T11:31:55.599Z,99345.96
2023-04-12T11:34:19.803Z,99343.48
2023-04-12T11:36:44.516Z,99341.20
2023-04-12T11:39:08.686Z,99341.59
2023-04-12T11:41:32.374Z,99336.56
2023-04-12T11:43:55.858Z,99332.66
2023-04-12T11:46:19.707Z,99327.11
2023-04-12T11:48:45.614Z,99327.32
2023-04-12T11:51:24.228Z,99324.67
2023-04-12T11:53:53.453Z,99319.95
2023-04-12T11:56:16.894Z,99318.27
2023-04-12T11:58:40.432Z,99316.38
2023-04-12T12:01:04.987Z,99314.92
2023-04-12T12:03:29.055Z,99311.54
2023-04-12T12:05:53.682Z,99304.63
2023-04-12T12:08:19.145Z,99302.29
2023-04-12T12:10:59.691Z,99297.64
2023-04-12T12:13:24.042Z,99295.44
2023-04-12T12:15:54.688Z,99288.79
2023-04-12T12:18:18.254Z,99288.57
2023-04-12T12:20:47.484Z,99285.16
2023-04-12T12:23:10.960Z,99277.05
2023-04-12T12:25:34.782Z,99270.27
2023-04-12T12:27:58.588Z,99268.76
2023-04-12T12:30:22.777Z,99268.98
2023-04-12T12:32:46.491Z,99266.60
2023-04-12T12:35:11.986Z,99261.64
2023-04-12T12:37:35.596Z,99256.38
2023-04-12T12:40:07.580Z,99249.57
2023-04-12T12:42:31.884Z,99249.92
2023-04-12T12:44:55.333Z,99253.54
2023-04-12T12:47:18.890Z,99253.44
2023-04-12T12:49:42.745Z,99255.64
2023-04-12T12:52:06.431Z,99253.63
2023-04-12T12:54:40.483Z,99250.94
2023-04-12T12:57:05.039Z,99252.64
2023-04-12T12:59:28.613Z,99247.91
2023-04-12T13:01:52.204Z,99245.20
2023-04-12T13:04:15.914Z,99241.73
2023-04-12T13:06:40.047Z,99240.48
2023-04-12T13:09:06.320Z,99238.73
2023-04-12T13:11:32.869Z,99241.89
2023-04-12T13:13:56.215Z,99236.44
2023-04-12T13:16:19.963Z,99232.71
2023-04-12T13:18:46.754Z,99231.41
2023-04-12T13:21:10.239Z,99230.34
2023-04-12T13:23:34.294Z,99224.67
2023-04-12T13:25:57.855Z,99221.79
2023-04-12T13:28:21.294Z,99219.89
2023-04-12T13:30:45.193Z,99215.25
2023-04-12T13:33:08.934Z,99218.17
2023-04-12T13:35:32.549Z,99213.78
2023-04-12T13:37:55.981Z,99211.09
2023-04-12T13:40:19.763Z,99208.19
2023-04-12T13:42:43.681Z,99207.13
2023-04-12T13:45:10.562Z,99203.40
2023-04-12T13:47:34.753Z,99204.19
2023-04-12T13:50:02.010Z,99200.09
2023-04-12T13:52:28.560Z,99198.45
2023-04-12T13:54:55.180Z,99202.71
2023-04-12T13:57:18.522Z,99202.23
2023-04-12T13:59:42.012Z,99206.59
2023-04-12T14:02:06.356Z,99208.28
2023-04-12T14:04:31.449Z,99204.79
2023-04-12T14:06:56.265Z,99203.73
2023-04-12T14:09:27.274Z,99208.34
2023-04-12T14:11:51.371Z,99205.73
2023-04-12T14:14:16.839Z,99205.02
2023-04-12T14:16:41.063Z,99206.56
2023-04-12T14:19:04.540Z,99205.99
2023-04-12T14:21:28.699Z,99206.11
2023-04-12T14:23:52.216Z,99202.34
2023-04-12T14:26:16.749Z,99198.77
2023-04-12T14:28:40.355Z,99203.30
2023-04-12T14:31:06.439Z,99200.60
2023-04-12T14:33:30.553Z,99211.34
2023-04-12T14:35:54.145Z,99205.55
2023-04-12T14:38:18.148Z,99209.96
2023-04-12T14:40:41.634Z,99212.89
2023-04-12T14:43:05.317Z,99212.11
2023-04-12T14:45:29.339Z,99210.86
2023-04-12T14:47:52.911Z,99207.71
2023-04-12T14:50:16.651Z,99208.30
2023-04-12T14:52:40.328Z,99205.11
2023-04-12T14:55:04.476Z,99203.60
2023-04-12T14:57:27.898Z,99202.12
2023-04-12T14:59:51.718Z,99204.15
2023-04-12T15:02:15.875Z,99206.54
2023-04-12T15:04:39.861Z,99209.86
2023-04-12T15:07:03.882Z,99206.88
2023-04-12T15:09:28.108Z,99210.48
2023-04-12T15:11:55.586Z,99212.48
2023-04-12T15:14:19.680Z,99210.98
2023-04-12T15:16:43.142Z,99209.61
2023-04-12T15:19:15.296Z,99206.30
2023-04-12T15:21:42.976Z,99206.11
2023-04-12T15:24:06.972Z,99203.66
2023-04-12T15:26:31.110Z,99198.16
2023-04-12T15:28:54.599Z,99197.52
2023-04-12T15:31:27.772Z,99196.10
2023-04-12T15:33:51.331Z,99197.04
2023-04-12T15:36:16.093Z,99196.63
2023-04-12T15:38:42.491Z,99195.40
2023-04-12T15:41:07.216Z,99192.67
2023-04-12T15:43:30.974Z,99188.59
2023-04-12T15:45:55.594Z,99185.77
2023-04-12T15:48:19.602Z,99186.88
2023-04-12T15:50:44.687Z,99186.86
2023-04-12T15:53:08.136Z,99188.96
2023-04-12T15:55:31.627Z,99183.96
2023-04-12T15:57:56.564Z,99181.90
2023-04-12T16:00:22.534Z,99182.78
2023-04-12T16:02:49.316Z,99180.41
2023-04-12T16:05:13.967Z,99176.29
2023-04-12T16:07:40.239Z,99174.08
2023-04-12T16:10:05.750Z,99177.69
2023-04-12T16:12:32.127Z,99178.55
2023-04-12T16:14:56.050Z,99174.81
2023-04-12T16:17:20.357Z,99172.63
2023-04-12T16:19:44.307Z,99171.35
2023-04-12T16:22:16.633Z,99176.73
2023-04-12T16:24:40.344Z,99177.32
2023-04-12T16:27:04.006Z,99176.92
2023-04-12T16:29:31.241Z,99179.80
2023-04-12T16:31:54.810Z,99176.14
2023-04-12T16:34:21.241Z,99177.10
2023-04-12T16:36:45.268Z,99179.80
2023-04-12T16:39:12.622Z,99180.38
2023-04-12T16:41:42.080Z,99183.14
2023-04-12T16:44:05.823Z,99184.38
2023-04-12T16:46:29.784Z,99184.40
2023-04-12T16:48:54.182Z,99186.80
2023-04-12T16:51:17.744Z,99188.73
2023-04-12T16:53:41.441Z,99193.25
2023-04-12T16:56:05.698Z,99187.30
2023-04-12T16:58:29.323Z,99189.71
2023-04-12T17:00:55.285Z,99190.52
2023-04-12T17:03:20.670Z,99191.93
2023-04-12T17:05:44.701Z,99194.38
2023-04-12T17:08:09.116Z,99197.80
2023-04-12T17:10:33.772Z,99197.79
2023-04-12T17:13:20.065Z,99202.45
2023-04-12T17:15:46.247Z,99200.74
2023-04-12T17:18:10.209Z,99200.73
2023-04-12T17:20:34.219Z,99203.61
2023-04-12T17:22:58.326Z,99204.59
2023-04-12T17:25:24.562Z,99202.83
2023-04-12T17:28:11.428Z,99206.63
2023-04-12T17:30:37.230Z,99203.38
2023-04-12T17:33:01.466Z,99205.53
2023-04-12T17:35:25.563Z,99211.55
2023-04-12T17:37:49.462Z,99213.55
2023-04-12T17:40:33.539Z,99211.11
2023-04-12T17:42:57.341Z,99211.16
2023-04-12T17:45:23.052Z,99211.52
2023-04-12T17:47:46.482Z,99211.75
2023-04-12T17:50:30.664Z,99214.73
2023-04-12T17:52:58.299Z,99213.15
2023-04-12T17:55:23.552Z,99216.69
2023-04-12T17:57:47.258Z,99222.23
2023-04-12T18:00:13.710Z,99222.31
2023-04-12T18:02:37.246Z,99220.73
2023-04-12T18:05:00.923Z,99223.81
2023-04-12T18:07:26.696Z,99224.45
2023-04-12T18:09:50.506Z,99227.12
2023-04-12T18:12:32.906Z,99230.78
2023-04-12T18:14:58.486Z,99233.80
2023-04-12T18:17:42.972Z,99233.19
2023-04-12T18:20:09.976Z,99231.05
2023-04-12T18:22:53.725Z,99230.80
2023-04-12T18:25:17.329Z,99236.86
2023-04-12T18:27:41.608Z,99239.86
2023-04-12T18:30:07.711Z,99241.44
2023-04-12T18:32:33.603Z,99239.02
2023-04-12T18:34:57.290Z,99239.09
2023-04-12T18:37:21.116Z,99239.00
2023-04-12T18:39:48.738Z,99232.41
2023-04-12T18:42:13.398Z,99238.78
2023-04-12T18:44:37.430Z,99243.03
2023-04-12T18:47:00.963Z,99244.20
2023-04-12T18:49:25.209Z,99237.77
2023-04-12T18:51:49.044Z,99237.41
2023-04-12T18:54:14.442Z,99237.59
2023-04-12T18:56:38.242Z,99239.48
2023-04-12T18:59:03.144Z,99242.72
2023-04-12T19:01:26.768Z,99239.45
2023-04-12T19:03:50.744Z,99243.80
2023-04-12T19:06:15.265Z,99241.27
2023-04-12T19:08:39.724Z,99238.31
2023-04-12T19:11:06.944Z,99237.27
2023-04-12T19:13:31.196Z,99238.92
2023-04-12T19:15:55.062Z,99237.86
2023-04-12T19:18:21.179Z,99234.41
2023-04-12T19:20:44.807Z,99230.61
2023-04-12T19:23:08.710Z,99228.30
2023-04-12T19:25:32.592Z,99228.02
2023-04-12T19:27:56.901Z,99232.69
2023-04-12T19:30:31.057Z,99224.23
2023-04-12T19:32:54.596Z,99218.52
2023-04-12T19:35:18.461Z,99219.85
2023-04-12T19:37:41.998Z,99219.60
2023-04-12T19:40:11.235Z,99219.04
2023-04-12T19:42:35.252Z,99214.71
2023-04-12T19:45:01.812Z,99214.15
2023-04-12T19:47:25.384Z,99212.94
2023-04-12T19:49:49.201Z,99211.05
2023-04-12T19:52:14.708Z,99205.36
2023-04-12T19:54:39.047Z,99203.23
2023-04-12T19:57:04.589Z,99204.99
2023-04-12T19:59:30.240Z,99205.91
2023-04-12T20:01:55.310Z,99204.04
2023-04-12T20:04:21.518Z,99200.90
2023-04-12T20:06:44.896Z,99197.90
2023-04-12T20:09:10.199Z,99197.52
2023-04-12T20:11:35.412Z,99194.83
2023-04-12T20:13:59.280Z,99195.58
2023-04-12T20:16:45.093Z,99192.53
2023-04-12T20:19:09.517Z,99199.27
2023-04-12T20:21:33.671Z,99197.98
2023-04-12T20:24:00.973Z,99195.85
2023-04-12T20:26:26.928Z,99188.48
2023-04-12T20:28:50.711Z,99183.86
2023-04-12T20:31:17.033Z,99184.61
2023-04-12T20:33:41.552Z,99184.73
2023-04-12T20:36:06.248Z,99177.48
2023-04-12T20:38:31.280Z,99178.33
2023-04-12T20:40:56.084Z,99175.45
2023-04-12T20:43:21.872Z,99174.50
2023-04-12T20:45:46.397Z,99169.01
2023-04-12T20:48:13.698Z,99169.61
2023-04-12T20:50:57.905Z,99167.87
2023-04-12T20:53:23.336Z,99167.22
2023-04-12T20:55:55.975Z,99169.14
2023-04-12T20:58:19.719Z,99170.09
2023-04-12T21:00:43.247Z,99165.18
2023-04-12T21:03:07.637Z,99162.33
2023-04-12T21:05:33.092Z,99163.63
2023-04-12T21:07:57.075Z,99163.75
2023-04-12T21:10:23.676Z,99165.08
2023-04-12T21:12:53.037Z,99159.84
2023-04-12T21:15:21.130Z,99161.15
2023-04-12T21:17:45.715Z,99158.36
2023-04-12T21:20:13.174Z,99163.01
2023-04-12T21:22:45.420Z,99163.81
2023-04-12T21:25:15.939Z,99160.65
2023-04-12T21:27:41.143Z,99158.83
2023-04-12T21:30:06.840Z,99158.16
2023-04-12T21:32:32.063Z,99161.80
2023-04-12T21:34:55.514Z,99159.45
2023-04-12T21:37:21.472Z,99164.38
2023-04-12T21:39:45.607Z,99167.55
2023-04-12T21:42:29.912Z,99163.21
2023-04-12T21:44:56.327Z,99163.90
2023-04-12T21:47:41.045Z,99159.42
2023-04-12T21:50:09.653Z,99157.00
2023-04-12T21:52:32.377Z,99158.67
2023-04-12T21:54:56.416Z,99154.52
2023-04-12T21:57:21.006Z,99156.95
2023-04-12T21:59:46.747Z,99153.36
2023-04-12T22:02:12.676Z,99151.28
2023-04-12T22:04:47.797Z,99148.73
2023-04-12T22:07:21.134Z,99152.30
2023-04-12T22:09:45.540Z,99149.09
2023-04-12T22:12:21.194Z,99146.73
2023-04-12T22:14:46.372Z,99148.49
2023-04-12T22:17:14.108Z,99144.19
2023-04-12T22:19:58.295Z,99143.54
2023-04-12T22:22:32.002Z,99142.34
2023-04-12T22:25:11.429Z,99138.90
2023-04-12T22:27:36.010Z,99136.92
2023-04-12T22:30:02.888Z,99130.79
2023-04-12T22:32:27.099Z,99129.42
2023-04-12T22:34:57.945Z,99127.73
2023-04-12T22:37:29.515Z,99127.08
2023-04-12T22:39:54.432Z,99125.92
2023-04-12T22:42:20.083Z,99121.63
2023-04-12T22:44:44.045Z,99117.67
2023-04-12T22:47:08.130Z,99114.77
2023-04-12T22:49:45.644Z,99112.41
2023-04-12T22:52:13.056Z,99111.65
2023-04-12T22:54:36.615Z,99108.66
2023-04-12T22:57:03.858Z,99107.35
2023-04-12T22:59:27.522Z,99106.36
2023-04-12T23:02:06.144Z,99102.61
2023-04-12T23:04:30.092Z,99100.08
2023-04-12T23:06:54.899Z,99092.35
2023-04-12T23:09:21.351Z,99091.83
2023-04-12T23:11:46.829Z,99089.06
2023-04-12T23:14:10.434Z,99090.98
2023-04-12T23:16:43.452Z,99088.10
2023-04-12T23:19:28.326Z,99085.06
2023-04-12T23:22:21.795Z,99081.55
2023-04-12T23:25:07.145Z,99075.81
2023-04-12T23:27:31.368Z,99077.05
2023-04-12T23:29:54.770Z,99072.38
2023-04-12T23:32:21.462Z,99067.98
2023-04-12T23:34:46.222Z,99062.30
2023-04-12T23:37:19.110Z,99062.11
2023-04-12T23:39:44.508Z,99061.05
2023-04-12T23:42:09.037Z,99064.10
2023-04-12T23:44:32.814Z,99065.26
2023-04-12T23:46:56.559Z,99057.83
2023-04-12T23:49:20.616Z,99055.14
2023-04-12T23:51:44.211Z,99051.24
2023-04-12T23:54:07.996Z,99051.37
2023-04-12T23:56:36.114Z,99046.86
2023-04-12T23:59:21.005Z,99042.13
